Red Diamond — A8UM9 — position and weather

sailwx.info

Track history (hours):
 
Tides and Currents Weather Stations Pressure Air Temp Water Temp Dewpoint Dewpoint Depression Visibility Wind Speed Wind Dir Waves Ship Positions

Red Diamond

Last reported at 2014-Oct-28 03:06 UTC. Time now 2014-Oct-30 13:02 UTC.
Position N 36°08' W 011°53'.

Length 190 m; draft 10.3 m.

Type: Cargo ship. MMSI: 636014524.

Date/timePositionNaut miles runAvg speedWind from/ knotsBaromVisibWave heightAir tempDewpointWater temp
2014-Oct-28 03:06N 36°08' W 011°53'5 9.3
2014-Oct-28 02:33N 36°08' W 011°47'9 9.5
2014-Oct-28 01:33N 36°08' W 011°35'10 9.7
2014-Oct-28 00:33N 36°07' W 011°23'10 9.7
2014-Oct-27 23:33N 36°07' W 011°11'10 9.6
2014-Oct-27 22:33N 36°07' W 010°59'9 9.2
2014-Oct-27 21:33N 36°06' W 010°48'9 9.1
2014-Oct-27 20:33N 36°06' W 010°36'9 9.2
2014-Oct-27 19:33N 36°06' W 010°25'9 9.4
2014-Oct-27 18:33N 36°05' W 010°13'9 9.5
2014-Oct-27 17:33N 36°05' W 010°02'10 9.7
2014-Oct-27 16:33N 36°04' W 009°50'10 9.7
2014-Oct-27 15:33N 36°04' W 009°38'10 9.7
2014-Oct-27 14:33N 36°04' W 009°26'10 9.8
2014-Oct-27 13:32N 36°03' W 009°13'10 9.8
2014-Oct-27 12:33N 36°03' W 009°01'13 9.7
2014-Oct-27 11:13N 36°02' W 008°45'6 9.8
2014-Oct-27 10:33N 36°02' W 008°37'21 9.8
2014-Oct-27 08:28N 36°01' W 008°12'11 9.8
2014-Oct-27 07:22N 36°00' W 007°59'1110.0
2014-Oct-27 06:15N 36°00' W 007°45'105 9.6
2014-Oct-26 19:20N 35°58' W 005°36'6 7.7
2014-Oct-26 18:33N 36°00' W 005°29'8 8.4
2014-Oct-26 17:33N 36°07' W 005°23'1 0.3
2014-Oct-26 14:17N 36°08' W 005°22'0 0.2
2014-Oct-26 13:23N 36°08' W 005°22'0 0.2
2014-Oct-26 12:29N 36°08' W 005°22'0 0.1
2014-Oct-26 11:32N 36°08' W 005°22'0 0.1
2014-Oct-26 10:32N 36°08' W 005°22'0 0.1
2014-Oct-26 08:26N 36°08' W 005°22'0 0.0
2014-Oct-26 07:32N 36°08' W 005°22'2 0.8
2014-Oct-26 05:34N 36°06' W 005°22'6 5.6
2014-Oct-26 04:34N 36°05' W 005°15'219 9.7
2014-Oct-25 06:05N 36°55' W 000°50'510.3
2014-Oct-25 05:33N 36°58' W 000°44'1110.5
2014-Oct-25 04:33N 37°02' W 000°32'1010.5
2014-Oct-25 03:33N 37°06' W 000°20'1010.5
2014-Oct-25 02:34N 37°11' W 000°08'1110.7
2014-Oct-25 01:33N 37°15' E 000°04'1110.6
2014-Oct-25 00:33N 37°20' E 000°16'1110.5
2014-Oct-24 23:33N 37°24' E 000°28'1110.6
2014-Oct-24 22:33N 37°28' E 000°40'1110.7
2014-Oct-24 21:33N 37°33' E 000°53'1110.9
2014-Oct-24 20:33N 37°38' E 001°05'1210.9
2014-Oct-24 19:26N 37°43' E 001°19'910.5
2014-Oct-24 18:33N 37°46' E 001°30'1010.3
2014-Oct-24 17:34N 37°51' E 001°42'1010.1
2014-Oct-24 16:33N 37°55' E 001°53'  
2014-Oct-21 21:04N 37°37' E 010°28'103 8.9
2014-Oct-21 09:27N 36°56' E 012°27'  
Track history (hours):
 
Tides and Currents Weather Stations Pressure Air Temp Water Temp Dewpoint Dewpoint Depression Visibility Wind Speed Wind Dir Waves Ship Positions

Red Diamond

Last reported at 2014-Oct-28 03:06 UTC. Time now 2014-Oct-30 13:02 UTC.
Position N 36°08' W 011°53'.

Length 190 m; draft 10.3 m.

Type: Cargo ship. MMSI: 636014524.

Date/timePositionNaut miles runAvg speedWind from/ knotsBaromVisibWave heightAir tempDewpointWater temp
2014-Oct-28 03:06N 36°08' W 011°53'5 9.3
2014-Oct-28 02:33N 36°08' W 011°47'9 9.5
2014-Oct-28 01:33N 36°08' W 011°35'10 9.7
2014-Oct-28 00:33N 36°07' W 011°23'10 9.7
2014-Oct-27 23:33N 36°07' W 011°11'10 9.6
2014-Oct-27 22:33N 36°07' W 010°59'9 9.2
2014-Oct-27 21:33N 36°06' W 010°48'9 9.1
2014-Oct-27 20:33N 36°06' W 010°36'9 9.2
2014-Oct-27 19:33N 36°06' W 010°25'9 9.4
2014-Oct-27 18:33N 36°05' W 010°13'9 9.5
2014-Oct-27 17:33N 36°05' W 010°02'10 9.7
2014-Oct-27 16:33N 36°04' W 009°50'10 9.7
2014-Oct-27 15:33N 36°04' W 009°38'10 9.7
2014-Oct-27 14:33N 36°04' W 009°26'10 9.8
2014-Oct-27 13:32N 36°03' W 009°13'10 9.8
2014-Oct-27 12:33N 36°03' W 009°01'13 9.7
2014-Oct-27 11:13N 36°02' W 008°45'6 9.8
2014-Oct-27 10:33N 36°02' W 008°37'21 9.8
2014-Oct-27 08:28N 36°01' W 008°12'11 9.8
2014-Oct-27 07:22N 36°00' W 007°59'1110.0
2014-Oct-27 06:15N 36°00' W 007°45'105 9.6
2014-Oct-26 19:20N 35°58' W 005°36'6 7.7
2014-Oct-26 18:33N 36°00' W 005°29'8 8.4
2014-Oct-26 17:33N 36°07' W 005°23'1 0.3
2014-Oct-26 14:17N 36°08' W 005°22'0 0.2
2014-Oct-26 13:23N 36°08' W 005°22'0 0.2
2014-Oct-26 12:29N 36°08' W 005°22'0 0.1
2014-Oct-26 11:32N 36°08' W 005°22'0 0.1
2014-Oct-26 10:32N 36°08' W 005°22'0 0.1
2014-Oct-26 08:26N 36°08' W 005°22'0 0.0
2014-Oct-26 07:32N 36°08' W 005°22'2 0.8
2014-Oct-26 05:34N 36°06' W 005°22'6 5.6
2014-Oct-26 04:34N 36°05' W 005°15'219 9.7
2014-Oct-25 06:05N 36°55' W 000°50'510.3
2014-Oct-25 05:33N 36°58' W 000°44'1110.5
2014-Oct-25 04:33N 37°02' W 000°32'1010.5
2014-Oct-25 03:33N 37°06' W 000°20'1010.5
2014-Oct-25 02:34N 37°11' W 000°08'1110.7
2014-Oct-25 01:33N 37°15' E 000°04'1110.6
2014-Oct-25 00:33N 37°20' E 000°16'1110.5
2014-Oct-24 23:33N 37°24' E 000°28'1110.6
2014-Oct-24 22:33N 37°28' E 000°40'1110.7
2014-Oct-24 21:33N 37°33' E 000°53'1110.9
2014-Oct-24 20:33N 37°38' E 001°05'1210.9
2014-Oct-24 19:26N 37°43' E 001°19'910.5
2014-Oct-24 18:33N 37°46' E 001°30'1010.3
2014-Oct-24 17:34N 37°51' E 001°42'1010.1
2014-Oct-24 16:33N 37°55' E 001°53'  
2014-Oct-21 21:04N 37°37' E 010°28'103 8.9
2014-Oct-21 09:27N 36°56' E 012°27'  

Dump ship's entire track history